createdAt,value
2022-09-24T00:03:31.010Z,100323.09
2022-09-24T00:08:34.249Z,100324.63
2022-09-24T00:13:37.030Z,100320.72
2022-09-24T00:18:40.603Z,100323.88
2022-09-24T00:23:43.728Z,100317.09
2022-09-24T00:28:49.251Z,100323.72
2022-09-24T00:33:52.524Z,100311.06
2022-09-24T00:38:57.294Z,100312.44
2022-09-24T00:44:00.352Z,100310.03
2022-09-24T00:49:11.021Z,100300.88
2022-09-24T00:54:18.602Z,100299.47
2022-09-24T00:59:23.935Z,100284.19
2022-09-24T01:04:27.996Z,100299.16
2022-09-24T01:09:31.255Z,100298.59
2022-09-24T01:14:52.415Z,100291.34
2022-09-24T01:20:02.936Z,100286.31
2022-09-24T01:26:00.222Z,100285.88
2022-09-24T01:31:33.967Z,100281.72
2022-09-24T01:36:37.308Z,100280.75
2022-09-24T01:41:42.359Z,100277.28
2022-09-24T01:46:45.252Z,100274.09
2022-09-24T01:51:52.319Z,100270.72
2022-09-24T01:57:05.415Z,100269.19
2022-09-24T02:02:16.166Z,100268.75
2022-09-24T02:07:33.483Z,100275.22
2022-09-24T02:12:42.382Z,100273.84
2022-09-24T02:17:48.479Z,100276.03
2022-09-24T02:22:51.824Z,100269.91
2022-09-24T02:27:54.581Z,100263.94
2022-09-24T02:32:57.618Z,100272.22
2022-09-24T02:38:05.460Z,100278.34
2022-09-24T02:43:08.848Z,100276.06
2022-09-24T02:48:11.815Z,100270.94
2022-09-24T02:53:14.343Z,100270.94
2022-09-24T02:58:16.935Z,100275.50
2022-09-24T03:03:19.541Z,100267.97
2022-09-24T03:08:24.307Z,100276.97
2022-09-24T03:13:27.628Z,100276.63
2022-09-24T03:18:30.358Z,100269.13
2022-09-24T03:23:32.975Z,100258.59
2022-09-24T03:28:35.677Z,100255.97
2022-09-24T03:33:43.909Z,100263.16
2022-09-24T03:38:48.507Z,100256.59
2022-09-24T03:43:51.351Z,100248.94
2022-09-24T03:48:53.982Z,100252.09
2022-09-24T03:53:56.631Z,100254.28
2022-09-24T03:58:59.275Z,100249.13
2022-09-24T04:04:02.386Z,100251.19
2022-09-24T04:09:05.196Z,100255.84
2022-09-24T04:14:07.853Z,100248.22
2022-09-24T04:19:10.770Z,100249.28
2022-09-24T04:24:13.961Z,100242.50
2022-09-24T04:29:16.901Z,100256.47
2022-09-24T04:34:20.948Z,100255.75
2022-09-24T04:39:26.757Z,100248.81
2022-09-24T04:44:30.331Z,100249.56
2022-09-24T04:49:33.226Z,100243.06
2022-09-24T04:54:35.984Z,100258.34
2022-09-24T04:59:38.637Z,100259.53
2022-09-24T05:04:41.336Z,100252.69
2022-09-24T05:09:55.915Z,100248.19
2022-09-24T05:15:01.521Z,100245.53
2022-09-24T05:20:08.474Z,100252.53
2022-09-24T05:25:12.611Z,100252.88
2022-09-24T05:30:15.705Z,100242.47
2022-09-24T05:35:24.109Z,100239.78
2022-09-24T05:40:45.345Z,100247.78
2022-09-24T05:45:51.443Z,100240.78
2022-09-24T05:50:57.080Z,100243.84
2022-09-24T05:55:59.825Z,100255.25
2022-09-24T06:01:02.727Z,100248.63
2022-09-24T06:06:06.364Z,100266.13
2022-09-24T06:11:09.556Z,100264.09
2022-09-24T06:16:14.912Z,100257.41
2022-09-24T06:21:20.353Z,100262.00
2022-09-24T06:26:23.052Z,100255.44
2022-09-24T06:31:25.789Z,100265.22
2022-09-24T06:36:29.209Z,100257.38
2022-09-24T06:41:31.796Z,100273.22
2022-09-24T06:46:34.523Z,100269.16
2022-09-24T06:51:37.262Z,100266.91
2022-09-24T06:56:40.421Z,100264.81
2022-09-24T07:01:43.221Z,100249.69
2022-09-24T07:07:09.059Z,100254.75
2022-09-24T07:12:11.769Z,100260.69
2022-09-24T07:17:14.938Z,100265.31
2022-09-24T07:22:18.782Z,100267.47
2022-09-24T07:27:21.509Z,100270.06
2022-09-24T07:32:29.566Z,100278.78
2022-09-24T07:37:34.139Z,100278.03
2022-09-24T07:42:37.338Z,100281.94
2022-09-24T07:47:40.054Z,100274.13
2022-09-24T07:52:42.731Z,100276.44
2022-09-24T07:57:50.103Z,100278.69
2022-09-24T08:02:53.873Z,100268.66
2022-09-24T08:07:57.683Z,100271.97
2022-09-24T08:13:03.348Z,100268.56
2022-09-24T08:18:07.148Z,100268.06
2022-09-24T08:23:12.827Z,100268.88
2022-09-24T08:28:20.110Z,100268.53
2022-09-24T08:33:23.206Z,100256.78
2022-09-24T08:38:26.195Z,100253.00
2022-09-24T08:43:43.103Z,100248.81
2022-09-24T08:48:51.589Z,100250.88
2022-09-24T08:54:09.736Z,100247.97
2022-09-24T08:59:28.871Z,100241.66
2022-09-24T09:04:39.611Z,100233.66
2022-09-24T09:09:56.086Z,100227.13
2022-09-24T09:15:12.367Z,100217.41
2022-09-24T09:20:27.561Z,100220.06
2022-09-24T09:25:36.030Z,100212.75
2022-09-24T09:30:44.918Z,100208.16
2022-09-24T09:36:25.021Z,100196.97
2022-09-24T09:42:15.197Z,100195.09
2022-09-24T09:47:37.335Z,100192.19
2022-09-24T09:52:40.195Z,100183.50
2022-09-24T09:57:42.863Z,100191.19
2022-09-24T10:02:50.944Z,100180.06
2022-09-24T10:07:53.734Z,100191.66
2022-09-24T10:13:12.370Z,100181.53
2022-09-24T10:18:15.349Z,100159.69
2022-09-24T10:23:21.328Z,100163.41
2022-09-24T10:28:42.930Z,100153.22
2022-09-24T10:33:47.335Z,100154.06
2022-09-24T10:38:50.214Z,100153.88
2022-09-24T10:43:54.386Z,100139.44
2022-09-24T10:49:02.491Z,100144.53
2022-09-24T10:54:48.965Z,100124.66
2022-09-24T10:59:55.076Z,100125.75
2022-09-24T11:05:21.613Z,100117.53
2022-09-24T11:10:30.439Z,100113.00
2022-09-24T11:15:42.032Z,100117.44
2022-09-24T11:21:03.317Z,100105.50
2022-09-24T11:26:15.901Z,100105.22
2022-09-24T11:31:54.314Z,100104.22
2022-09-24T11:37:21.120Z,100091.06
2022-09-24T11:42:29.112Z,100097.50
2022-09-24T11:48:25.298Z,100091.50
2022-09-24T11:53:52.665Z,100075.41
2022-09-24T11:59:19.959Z,100071.25
2022-09-24T12:04:40.348Z,100065.34
2022-09-24T12:09:59.994Z,100074.13
2022-09-24T12:15:21.517Z,100053.72
2022-09-24T12:20:32.002Z,100018.75
2022-09-24T12:25:40.268Z,100036.25
2022-09-24T12:31:12.430Z,100042.78
2022-09-24T12:36:22.693Z,100041.31
2022-09-24T12:41:36.390Z,100043.56
2022-09-24T12:46:48.471Z,100032.69
2022-09-24T12:51:56.349Z,100031.69
2022-09-24T12:57:25.504Z,100033.19
2022-09-24T13:02:45.489Z,100035.09
2022-09-24T13:07:59.450Z,100030.50
2022-09-24T13:13:04.303Z,100016.38
2022-09-24T13:18:10.902Z,100022.66
2022-09-24T13:23:20.475Z,100019.84
2022-09-24T13:28:37.867Z,100027.53
2022-09-24T13:33:44.950Z,100014.72
2022-09-24T13:39:12.508Z,100014.72
2022-09-24T13:44:27.955Z,100011.97
2022-09-24T13:49:32.162Z,100001.34
2022-09-24T13:54:39.799Z,100004.19
2022-09-24T13:59:42.616Z,99987.81
2022-09-24T14:04:47.618Z,99987.69
2022-09-24T14:09:51.568Z,99985.88
2022-09-24T14:14:58.356Z,99990.47
2022-09-24T14:20:01.500Z,99992.25
2022-09-24T14:25:09.635Z,99986.09
2022-09-24T14:30:21.905Z,99977.66
2022-09-24T14:35:32.833Z,99980.97
2022-09-24T14:40:44.391Z,99973.91
2022-09-24T14:45:49.202Z,99975.84
2022-09-24T14:50:51.974Z,99971.34
2022-09-24T14:55:54.736Z,99981.69
2022-09-24T15:01:03.267Z,99977.78
2022-09-24T15:06:27.223Z,99988.53
2022-09-24T15:11:37.564Z,99981.75
2022-09-24T15:16:40.844Z,99972.25
2022-09-24T15:21:43.956Z,99976.41
2022-09-24T15:27:02.062Z,99982.44
2022-09-24T15:32:12.622Z,99984.56
2022-09-24T15:37:20.266Z,99972.84
2022-09-24T15:42:24.662Z,99972.69
2022-09-24T15:47:27.571Z,99974.56
2022-09-24T15:52:32.023Z,99971.94
2022-09-24T15:57:34.807Z,99974.06
2022-09-24T16:02:37.621Z,99968.94
2022-09-24T16:07:40.851Z,99967.94
2022-09-24T16:12:43.968Z,99962.78
2022-09-24T16:17:49.854Z,99964.44
2022-09-24T16:22:52.551Z,99974.38
2022-09-24T16:27:57.099Z,99963.69
2022-09-24T16:32:59.672Z,99963.09
2022-09-24T16:38:02.821Z,99956.72
2022-09-24T16:43:11.395Z,99958.78
2022-09-24T16:48:14.121Z,99957.56
2022-09-24T16:53:16.840Z,99961.31
2022-09-24T16:58:20.516Z,99951.44
2022-09-24T17:03:23.134Z,99962.16
2022-09-24T17:08:45.755Z,99963.00
2022-09-24T17:13:48.386Z,99967.72
2022-09-24T17:18:54.363Z,99972.66
2022-09-24T17:23:56.957Z,99973.47
2022-09-24T17:29:00.222Z,99973.88
2022-09-24T17:34:12.476Z,99977.13
2022-09-24T17:39:15.058Z,99989.69
2022-09-24T17:44:18.938Z,99978.53
2022-09-24T17:49:21.549Z,99981.41
2022-09-24T17:54:26.869Z,99990.81
2022-09-24T17:59:29.450Z,99992.00
2022-09-24T18:04:35.758Z,99993.22
2022-09-24T18:09:38.538Z,99989.25
2022-09-24T18:14:41.198Z,99993.28
2022-09-24T18:19:43.796Z,99997.31
2022-09-24T18:24:47.611Z,99997.50
2022-09-24T18:29:50.271Z,99999.06
2022-09-24T18:34:53.327Z,99990.38
2022-09-24T18:39:55.920Z,99999.53
2022-09-24T18:44:58.508Z,100001.72
2022-09-24T18:50:01.981Z,99994.47
2022-09-24T18:55:04.997Z,100002.00
2022-09-24T19:00:29.150Z,100004.38
2022-09-24T19:05:33.608Z,100008.63
2022-09-24T19:10:36.261Z,100008.38
2022-09-24T19:15:40.160Z,100000.56
2022-09-24T19:20:45.866Z,100003.03
2022-09-24T19:25:48.502Z,100003.22
2022-09-24T19:30:53.226Z,100006.94
2022-09-24T19:36:04.696Z,100001.59
2022-09-24T19:41:10.648Z,99992.09
2022-09-24T19:46:17.180Z,99998.19
2022-09-24T19:51:27.847Z,99994.25
2022-09-24T19:56:31.941Z,99993.00
2022-09-24T20:01:34.738Z,99997.84
2022-09-24T20:06:38.354Z,99996.56
2022-09-24T20:11:41.054Z,99999.81
2022-09-24T20:16:44.653Z,99999.91
2022-09-24T20:21:47.644Z,99989.19
2022-09-24T20:27:08.734Z,99991.78
2022-09-24T20:32:15.458Z,99994.16
2022-09-24T20:37:18.122Z,99990.41
2022-09-24T20:42:20.788Z,99992.25
2022-09-24T20:47:23.615Z,99993.47
2022-09-24T20:52:26.260Z,99996.94
2022-09-24T20:57:29.021Z,99992.81
2022-09-24T21:02:32.205Z,99984.81
2022-09-24T21:07:35.609Z,99981.69
2022-09-24T21:12:39.029Z,99988.22
2022-09-24T21:17:51.012Z,99980.81
2022-09-24T21:23:06.108Z,99977.88
2022-09-24T21:28:09.524Z,99984.28
2022-09-24T21:33:12.866Z,99974.84
2022-09-24T21:38:18.506Z,99982.38
2022-09-24T21:43:23.651Z,99980.91
2022-09-24T21:48:26.973Z,99984.31
2022-09-24T21:53:29.666Z,99976.03
2022-09-24T21:58:32.686Z,99988.88
2022-09-24T22:03:35.229Z,99979.97
2022-09-24T22:08:38.131Z,99981.72
2022-09-24T22:13:41.013Z,99976.66
2022-09-24T22:18:43.659Z,99982.28
2022-09-24T22:23:46.258Z,99975.50
2022-09-24T22:28:49.163Z,99984.22
2022-09-24T22:34:10.588Z,99964.13
2022-09-24T22:39:13.436Z,99963.00
2022-09-24T22:44:16.083Z,99965.56
2022-09-24T22:49:19.645Z,99958.31
2022-09-24T22:54:24.263Z,99963.16
2022-09-24T22:59:26.951Z,99965.69
2022-09-24T23:04:30.145Z,99956.41
2022-09-24T23:09:32.781Z,99957.25
2022-09-24T23:14:35.423Z,99957.13
2022-09-24T23:19:50.057Z,99955.81
2022-09-24T23:24:53.193Z,99957.84
2022-09-24T23:29:56.979Z,99961.03
2022-09-24T23:35:00.229Z,99973.88
2022-09-24T23:40:03.278Z,99958.25
2022-09-24T23:45:06.554Z,99954.13
2022-09-24T23:50:09.416Z,99955.13
2022-09-24T23:55:12.103Z,99952.63
